createdAt,value
2023-02-28T00:01:34.331Z,-1.02
2023-02-28T00:04:02.041Z,-1.02
2023-02-28T00:06:29.749Z,-1.02
2023-02-28T00:08:57.482Z,-1.01
2023-02-28T00:11:25.185Z,-1.00
2023-02-28T00:13:53.025Z,-0.99
2023-02-28T00:16:22.873Z,-0.97
2023-02-28T00:18:51.139Z,-0.98
2023-02-28T00:21:19.439Z,-0.97
2023-02-28T00:23:47.496Z,-0.99
2023-02-28T00:26:15.703Z,-1.01
2023-02-28T00:28:44.147Z,-1.02
2023-02-28T00:31:11.938Z,-1.03
2023-02-28T00:33:39.729Z,-1.05
2023-02-28T00:36:10.366Z,-1.07
2023-02-28T00:38:39.757Z,-1.07
2023-02-28T00:41:08.580Z,-1.08
2023-02-28T00:43:39.949Z,-1.10
2023-02-28T00:46:08.328Z,-1.13
2023-02-28T00:48:36.433Z,-1.16
2023-02-28T00:51:05.453Z,-1.14
2023-02-28T00:53:36.329Z,-1.15
2023-02-28T00:56:04.529Z,-1.14
2023-02-28T00:58:33.171Z,-1.14
2023-02-28T01:01:00.900Z,-1.13
2023-02-28T01:03:28.719Z,-1.12
2023-02-28T01:05:56.423Z,-1.10
2023-02-28T01:08:24.637Z,-1.10
2023-02-28T01:10:52.806Z,-1.13
2023-02-28T01:13:21.245Z,-1.13
2023-02-28T01:15:53.957Z,-1.14
2023-02-28T01:18:23.046Z,-1.17
2023-02-28T01:20:52.789Z,-1.19
2023-02-28T01:23:23.240Z,-1.20
2023-02-28T01:25:52.001Z,-1.22
2023-02-28T01:28:19.664Z,-1.26
2023-02-28T01:30:51.842Z,-1.28
2023-02-28T01:33:20.388Z,-1.29
2023-02-28T01:35:48.022Z,-1.32
2023-02-28T01:38:22.497Z,-1.33
2023-02-28T01:40:50.992Z,-1.34
2023-02-28T01:43:26.220Z,-1.35
2023-02-28T01:45:57.505Z,-1.37
2023-02-28T01:48:32.560Z,-1.40
2023-02-28T01:51:04.685Z,-1.42
2023-02-28T01:53:40.126Z,-1.43
2023-02-28T01:56:08.925Z,-1.46
2023-02-28T01:58:37.760Z,-1.50
2023-02-28T02:01:05.592Z,-1.55
2023-02-28T02:03:36.372Z,-1.60
2023-02-28T02:06:04.226Z,-1.63
2023-02-28T02:08:31.978Z,-1.67
2023-02-28T02:11:01.654Z,-1.73
2023-02-28T02:13:39.271Z,-1.80
2023-02-28T02:16:19.559Z,-1.89
2023-02-28T02:18:54.288Z,-1.98
2023-02-28T02:22:03.984Z,-2.06
2023-02-28T02:24:36.683Z,-2.17
2023-02-28T02:27:35.640Z,-2.23
2023-02-28T02:30:31.414Z,-2.31
2023-02-28T02:33:15.710Z,-2.41
2023-02-28T02:35:55.014Z,-2.50
2023-02-28T02:38:23.127Z,-2.58
2023-02-28T02:41:09.577Z,-2.64
2023-02-28T02:43:41.252Z,-2.71
2023-02-28T02:46:17.809Z,-2.76
2023-02-28T02:48:47.160Z,-2.82
2023-02-28T02:51:18.048Z,-2.86
2023-02-28T02:54:09.867Z,-2.89
2023-02-28T02:56:40.419Z,-2.95
2023-02-28T02:59:10.721Z,-3.00
2023-02-28T03:01:39.689Z,-3.02
2023-02-28T03:04:17.926Z,-3.04
2023-02-28T03:06:45.529Z,-3.07
2023-02-28T03:09:13.330Z,-3.11
2023-02-28T03:11:41.541Z,-3.16
2023-02-28T03:14:44.674Z,-3.22
2023-02-28T03:17:38.131Z,-3.28
2023-02-28T03:20:20.490Z,-3.35
2023-02-28T03:23:23.036Z,-3.39
2023-02-28T03:26:16.480Z,-3.45
2023-02-28T03:29:00.438Z,-3.50
2023-02-28T03:31:42.715Z,-3.53
2023-02-28T03:34:19.677Z,-3.57
2023-02-28T03:36:50.713Z,-3.60
2023-02-28T03:39:22.750Z,-3.62
2023-02-28T03:42:12.907Z,-3.64
2023-02-28T03:44:44.496Z,-3.68
2023-02-28T03:47:16.927Z,-3.70
2023-02-28T03:49:49.750Z,-3.74
2023-02-28T03:52:19.671Z,-3.77
2023-02-28T03:54:52.090Z,-3.79
2023-02-28T03:57:44.931Z,-3.83
2023-02-28T04:00:21.291Z,-3.86
2023-02-28T04:02:53.640Z,-3.90
2023-02-28T04:05:22.359Z,-3.98
2023-02-28T04:07:50.252Z,-4.01
2023-02-28T04:10:18.167Z,-4.05
2023-02-28T04:12:45.790Z,-4.06
2023-02-28T04:15:13.441Z,-4.06
2023-02-28T04:17:41.308Z,-4.05
2023-02-28T04:20:10.754Z,-4.05
2023-02-28T04:22:38.488Z,-4.04
2023-02-28T04:25:06.936Z,-4.03
2023-02-28T04:27:35.186Z,-4.04
2023-02-28T04:30:03.459Z,-4.06
2023-02-28T04:32:31.098Z,-4.10
2023-02-28T04:34:58.694Z,-4.13
2023-02-28T04:37:29.799Z,-4.14
2023-02-28T04:39:57.422Z,-4.17
2023-02-28T04:42:25.006Z,-4.20
2023-02-28T04:44:52.598Z,-4.23
2023-02-28T04:47:20.216Z,-4.25
2023-02-28T04:49:47.942Z,-4.26
2023-02-28T04:52:15.630Z,-4.26
2023-02-28T04:54:43.318Z,-4.26
2023-02-28T04:57:10.898Z,-4.27
2023-02-28T04:59:38.520Z,-4.28
2023-02-28T05:02:07.588Z,-4.31
2023-02-28T05:04:35.540Z,-4.31
2023-02-28T05:07:04.183Z,-4.33
2023-02-28T05:09:33.914Z,-4.36
2023-02-28T05:12:01.829Z,-4.38
2023-02-28T05:14:29.398Z,-4.41
2023-02-28T05:16:56.987Z,-4.42
2023-02-28T05:19:24.588Z,-4.45
2023-02-28T05:21:54.898Z,-4.48
2023-02-28T05:24:25.459Z,-4.48
2023-02-28T05:26:54.142Z,-4.49
2023-02-28T05:29:22.576Z,-4.50
2023-02-28T05:31:50.446Z,-4.52
2023-02-28T05:34:18.477Z,-4.52
2023-02-28T05:36:46.093Z,-4.51
2023-02-28T05:39:14.195Z,-4.51
2023-02-28T05:41:42.892Z,-4.49
2023-02-28T05:44:11.389Z,-4.48
2023-02-28T05:46:39.461Z,-4.51
2023-02-28T05:49:07.238Z,-4.51
2023-02-28T05:51:37.263Z,-4.52
2023-02-28T05:54:05.070Z,-4.50
2023-02-28T05:56:33.086Z,-4.46
2023-02-28T05:59:00.835Z,-4.44
2023-02-28T06:01:49.044Z,-4.41
2023-02-28T06:04:31.047Z,-4.41
2023-02-28T06:06:59.509Z,-4.40
2023-02-28T06:09:27.350Z,-4.38
2023-02-28T06:11:55.126Z,-4.33
2023-02-28T06:14:22.808Z,-4.26
2023-02-28T06:16:50.512Z,-4.19
2023-02-28T06:19:18.240Z,-4.11
2023-02-28T06:21:46.268Z,-4.05
2023-02-28T06:24:13.863Z,-3.99
2023-02-28T06:26:41.603Z,-3.92
2023-02-28T06:29:09.311Z,-3.79
2023-02-28T06:31:37.177Z,-3.67
2023-02-28T06:34:05.872Z,-3.56
2023-02-28T06:36:33.527Z,-3.40
2023-02-28T06:39:01.228Z,-3.28
2023-02-28T06:41:29.647Z,-3.17
2023-02-28T06:43:58.549Z,-3.01
2023-02-28T06:46:26.180Z,-2.88
2023-02-28T06:48:53.785Z,-2.68
2023-02-28T06:51:23.254Z,-2.50
2023-02-28T06:53:52.022Z,-2.32
2023-02-28T06:56:21.370Z,-2.16
2023-02-28T06:58:50.478Z,-2.03
2023-02-28T07:01:18.572Z,-1.93
2023-02-28T07:03:47.468Z,-1.84
2023-02-28T07:06:15.082Z,-1.80
2023-02-28T07:08:42.709Z,-1.75
2023-02-28T07:11:10.368Z,-1.70
2023-02-28T07:13:37.981Z,-1.66
2023-02-28T07:16:08.801Z,-1.59
2023-02-28T07:18:36.954Z,-1.50
2023-02-28T07:21:06.482Z,-1.46
2023-02-28T07:23:34.857Z,-1.37
2023-02-28T07:26:03.118Z,-1.25
2023-02-28T07:28:31.159Z,-1.13
2023-02-28T07:31:04.923Z,-1.03
2023-02-28T07:33:32.928Z,-0.92
2023-02-28T07:36:05.784Z,-0.89
2023-02-28T07:38:38.374Z,-0.83
2023-02-28T07:41:06.086Z,-0.77
2023-02-28T07:43:33.829Z,-0.70
2023-02-28T07:46:05.354Z,-0.59
2023-02-28T07:48:33.100Z,-0.53
2023-02-28T07:51:01.254Z,-0.48
2023-02-28T07:53:29.244Z,-0.37
2023-02-28T07:55:57.813Z,-0.30
2023-02-28T07:58:25.987Z,-0.28
2023-02-28T08:00:53.695Z,-0.21
2023-02-28T08:03:23.072Z,-0.12
2023-02-28T08:05:51.009Z,-0.12
2023-02-28T08:08:18.634Z,-0.12
2023-02-28T08:10:46.327Z,-0.11
2023-02-28T08:13:13.929Z,-0.08
2023-02-28T08:15:43.839Z,-0.03
2023-02-28T08:18:11.442Z,-0.05
2023-02-28T08:20:39.196Z,-0.01
2023-02-28T08:23:06.802Z,0.03
2023-02-28T08:25:34.404Z,0.19
2023-02-28T08:28:02.039Z,0.44
2023-02-28T08:30:29.758Z,0.78
2023-02-28T08:32:57.467Z,1.02
2023-02-28T08:35:25.393Z,0.99
2023-02-28T08:37:53.065Z,0.97
2023-02-28T08:40:20.744Z,0.98
2023-02-28T08:42:48.906Z,0.89
2023-02-28T08:45:16.632Z,0.86
2023-02-28T08:47:44.231Z,0.91
2023-02-28T08:50:11.858Z,1.05
2023-02-28T08:52:39.478Z,1.20
2023-02-28T08:55:07.487Z,1.28
2023-02-28T08:57:35.098Z,1.41
2023-02-28T09:00:05.295Z,1.47
2023-02-28T09:02:32.926Z,1.57
2023-02-28T09:05:00.592Z,1.64
2023-02-28T09:07:28.230Z,1.58
2023-02-28T09:09:55.879Z,1.46
2023-02-28T09:12:25.011Z,1.48
2023-02-28T09:14:53.500Z,1.55
2023-02-28T09:17:21.427Z,1.63
2023-02-28T09:19:50.123Z,1.68
2023-02-28T09:22:17.920Z,1.63
2023-02-28T09:24:45.917Z,1.57
2023-02-28T09:27:13.694Z,1.60
2023-02-28T09:29:41.444Z,1.54
2023-02-28T09:32:09.146Z,1.55
2023-02-28T09:34:37.914Z,1.65
2023-02-28T09:37:05.764Z,1.72
2023-02-28T09:39:33.548Z,1.77
2023-02-28T09:42:02.200Z,1.75
2023-02-28T09:44:34.843Z,1.70
2023-02-28T09:47:08.454Z,1.63
2023-02-28T09:49:42.066Z,1.60
2023-02-28T09:52:21.430Z,1.67
2023-02-28T09:54:49.121Z,1.59
2023-02-28T09:57:34.859Z,1.54
2023-02-28T10:00:34.930Z,1.69
2023-02-28T10:03:11.893Z,1.73
2023-02-28T10:05:44.710Z,1.77
2023-02-28T10:08:16.242Z,1.82
2023-02-28T10:10:49.602Z,1.83
2023-02-28T10:13:34.755Z,1.78
2023-02-28T10:16:07.038Z,1.83
2023-02-28T10:18:50.216Z,1.86
2023-02-28T10:21:58.133Z,1.92
2023-02-28T10:24:44.131Z,1.83
2023-02-28T10:27:20.387Z,1.74
2023-02-28T10:29:50.703Z,1.75
2023-02-28T10:32:20.846Z,1.79
2023-02-28T10:35:11.012Z,1.77
2023-02-28T10:37:40.057Z,1.79
2023-02-28T10:40:27.655Z,1.75
2023-02-28T10:42:57.568Z,1.79
2023-02-28T10:45:26.365Z,1.89
2023-02-28T10:47:56.972Z,2.02
2023-02-28T10:50:34.607Z,2.10
2023-02-28T10:53:11.418Z,2.17
2023-02-28T10:55:40.387Z,2.22
2023-02-28T10:58:23.300Z,2.28
2023-02-28T11:00:52.167Z,2.40
2023-02-28T11:03:32.734Z,2.47
2023-02-28T11:06:09.222Z,2.48
2023-02-28T11:08:45.994Z,2.47
2023-02-28T11:11:13.800Z,2.43
2023-02-28T11:13:42.634Z,2.32
2023-02-28T11:16:12.840Z,2.34
2023-02-28T11:18:55.228Z,2.39
2023-02-28T11:21:29.867Z,2.41
2023-02-28T11:24:06.439Z,2.43
2023-02-28T11:26:52.579Z,2.43
2023-02-28T11:29:23.200Z,2.34
2023-02-28T11:32:09.644Z,2.30
2023-02-28T11:34:38.511Z,2.29
2023-02-28T11:37:19.960Z,2.31
2023-02-28T11:39:47.673Z,2.33
2023-02-28T11:42:51.519Z,2.30
2023-02-28T11:45:56.721Z,2.28
2023-02-28T11:48:30.081Z,2.26
2023-02-28T11:51:21.274Z,2.26
2023-02-28T11:53:57.785Z,2.22
2023-02-28T11:56:27.473Z,2.22
2023-02-28T11:59:12.247Z,2.31
2023-02-28T12:02:06.334Z,2.42
2023-02-28T12:04:57.867Z,2.50
2023-02-28T12:07:44.408Z,2.50
2023-02-28T12:10:30.621Z,2.53
2023-02-28T12:13:10.443Z,2.49
2023-02-28T12:15:49.999Z,2.49
2023-02-28T12:18:45.892Z,2.54
2023-02-28T12:21:43.687Z,2.55
2023-02-28T12:24:30.366Z,2.50
2023-02-28T12:26:59.751Z,2.51
2023-02-28T12:29:34.207Z,2.56
2023-02-28T12:32:16.512Z,2.62
2023-02-28T12:34:50.891Z,2.68
2023-02-28T12:37:25.350Z,2.74
2023-02-28T12:39:57.277Z,2.77
2023-02-28T12:42:30.759Z,2.79
2023-02-28T12:45:21.220Z,2.89
2023-02-28T12:47:58.123Z,2.99
2023-02-28T12:50:26.510Z,3.04
2023-02-28T12:53:04.689Z,3.01
2023-02-28T12:56:00.566Z,3.05
2023-02-28T12:59:02.181Z,2.98
2023-02-28T13:02:07.721Z,2.88
2023-02-28T13:04:56.904Z,2.82
2023-02-28T13:07:39.966Z,2.85
2023-02-28T13:10:08.627Z,2.87
2023-02-28T13:12:36.900Z,2.89
2023-02-28T13:15:22.866Z,2.91
2023-02-28T13:17:55.227Z,2.93
2023-02-28T13:20:26.349Z,3.03
2023-02-28T13:22:55.559Z,3.13
2023-02-28T13:25:23.154Z,3.20
2023-02-28T13:28:01.720Z,3.22
2023-02-28T13:30:51.903Z,3.20
2023-02-28T13:33:30.779Z,3.18
2023-02-28T13:36:23.702Z,3.16
2023-02-28T13:38:57.301Z,3.14
2023-02-28T13:41:37.115Z,3.10
2023-02-28T13:44:24.980Z,3.11
2023-02-28T13:46:52.786Z,3.12
2023-02-28T13:49:23.880Z,3.12
2023-02-28T13:52:03.855Z,3.15
2023-02-28T13:54:40.415Z,3.23
2023-02-28T13:57:26.792Z,3.30
2023-02-28T14:00:00.369Z,3.30
2023-02-28T14:03:00.318Z,3.30
2023-02-28T14:05:30.682Z,3.34
2023-02-28T14:07:59.897Z,3.37
2023-02-28T14:10:40.437Z,3.30
2023-02-28T14:13:26.495Z,3.28
2023-02-28T14:15:58.503Z,3.20
2023-02-28T14:18:33.699Z,3.19
2023-02-28T14:21:20.004Z,3.20
2023-02-28T14:23:56.752Z,3.24
2023-02-28T14:26:50.690Z,3.22
2023-02-28T14:29:31.875Z,3.25
2023-02-28T14:32:03.572Z,3.29
2023-02-28T14:34:45.584Z,3.30
2023-02-28T14:37:34.845Z,3.31
2023-02-28T14:40:04.722Z,3.31
2023-02-28T14:42:35.427Z,3.29
2023-02-28T14:45:03.999Z,3.30
2023-02-28T14:47:33.281Z,3.32
2023-02-28T14:50:02.039Z,3.34
2023-02-28T14:52:32.782Z,3.35
2023-02-28T14:55:12.463Z,3.35
2023-02-28T14:57:42.973Z,3.33
2023-02-28T15:00:32.039Z,3.32
2023-02-28T15:03:01.322Z,3.27
2023-02-28T15:05:34.113Z,3.26
2023-02-28T15:08:16.230Z,3.27
2023-02-28T15:10:52.756Z,3.26
2023-02-28T15:13:21.141Z,3.22
2023-02-28T15:16:03.926Z,3.20
2023-02-28T15:18:39.006Z,3.16
2023-02-28T15:21:08.927Z,3.13
2023-02-28T15:23:37.411Z,3.11
2023-02-28T15:26:05.585Z,3.07
2023-02-28T15:28:33.410Z,2.99
2023-02-28T15:31:04.628Z,2.91
2023-02-28T15:33:34.105Z,2.86
2023-02-28T15:36:14.746Z,2.81
2023-02-28T15:38:44.635Z,2.74
2023-02-28T15:41:25.569Z,2.68
2023-02-28T15:44:38.677Z,2.57
2023-02-28T15:47:23.463Z,2.50
2023-02-28T15:49:54.820Z,2.44
2023-02-28T15:52:35.342Z,2.39
2023-02-28T15:55:28.676Z,2.35
2023-02-28T15:57:59.805Z,2.29
2023-02-28T16:00:29.798Z,2.23
2023-02-28T16:02:57.566Z,2.17
2023-02-28T16:05:33.453Z,2.12
2023-02-28T16:08:16.197Z,2.07
2023-02-28T16:10:44.079Z,2.00
2023-02-28T16:13:15.094Z,1.94
2023-02-28T16:15:44.145Z,1.90
2023-02-28T16:18:13.160Z,1.84
2023-02-28T16:20:41.208Z,1.76
2023-02-28T16:23:09.092Z,1.69
2023-02-28T16:25:40.181Z,1.63
2023-02-28T16:28:18.731Z,1.57
2023-02-28T16:30:46.444Z,1.49
2023-02-28T16:33:14.315Z,1.42
2023-02-28T16:35:41.957Z,1.35
2023-02-28T16:38:09.615Z,1.29
2023-02-28T16:40:37.661Z,1.22
2023-02-28T16:43:08.724Z,1.15
2023-02-28T16:45:36.356Z,1.07
2023-02-28T16:48:04.062Z,0.97
2023-02-28T16:50:33.625Z,0.89
2023-02-28T16:53:01.266Z,0.82
2023-02-28T16:55:29.003Z,0.73
2023-02-28T16:57:59.534Z,0.68
2023-02-28T17:00:29.021Z,0.62
2023-02-28T17:02:57.259Z,0.57
2023-02-28T17:05:24.960Z,0.51
2023-02-28T17:07:52.764Z,0.46
2023-02-28T17:10:23.604Z,0.41
2023-02-28T17:12:51.417Z,0.36
2023-02-28T17:15:20.674Z,0.31
2023-02-28T17:17:49.747Z,0.27
2023-02-28T17:20:27.362Z,0.19
2023-02-28T17:22:55.497Z,0.12
2023-02-28T17:25:24.592Z,0.07
2023-02-28T17:27:52.395Z,0.02
2023-02-28T17:30:22.891Z,-0.02
2023-02-28T17:32:50.676Z,-0.06
2023-02-28T17:35:18.325Z,-0.09
2023-02-28T17:37:46.448Z,-0.13
2023-02-28T17:40:17.033Z,-0.14
2023-02-28T17:42:45.418Z,-0.15
2023-02-28T17:45:14.765Z,-0.16
2023-02-28T17:47:45.218Z,-0.16
2023-02-28T17:50:19.995Z,-0.19
2023-02-28T17:52:48.267Z,-0.21
2023-02-28T17:55:16.185Z,-0.23
2023-02-28T17:57:46.949Z,-0.26
2023-02-28T18:00:16.938Z,-0.33
2023-02-28T18:02:45.018Z,-0.33
2023-02-28T18:05:13.217Z,-0.37
2023-02-28T18:07:41.710Z,-0.41
2023-02-28T18:10:16.995Z,-0.46
2023-02-28T18:12:45.076Z,-0.52
2023-02-28T18:15:13.036Z,-0.55
2023-02-28T18:17:40.866Z,-0.58
2023-02-28T18:20:10.580Z,-0.60
2023-02-28T18:22:39.639Z,-0.62
2023-02-28T18:25:09.316Z,-0.64
2023-02-28T18:27:37.494Z,-0.66
2023-02-28T18:30:06.528Z,-0.69
2023-02-28T18:32:34.402Z,-0.71
2023-02-28T18:35:02.105Z,-0.74
2023-02-28T18:37:30.536Z,-0.77
2023-02-28T18:39:58.357Z,-0.80
2023-02-28T18:42:26.184Z,-0.82
2023-02-28T18:44:53.779Z,-0.86
2023-02-28T18:47:21.417Z,-0.88
2023-02-28T18:49:49.365Z,-0.90
2023-02-28T18:52:16.948Z,-0.92
2023-02-28T18:54:44.817Z,-0.94
2023-02-28T18:57:12.669Z,-0.96
2023-02-28T18:59:40.308Z,-0.99
2023-02-28T19:02:09.073Z,-1.04
2023-02-28T19:04:36.917Z,-1.08
2023-02-28T19:07:04.767Z,-1.11
2023-02-28T19:09:32.368Z,-1.12
2023-02-28T19:12:00.291Z,-1.12
2023-02-28T19:14:28.001Z,-1.15
2023-02-28T19:16:55.692Z,-1.20
2023-02-28T19:19:23.591Z,-1.22
2023-02-28T19:21:51.322Z,-1.24
2023-02-28T19:24:20.326Z,-1.25
2023-02-28T19:26:48.303Z,-1.27
2023-02-28T19:29:15.973Z,-1.27
2023-02-28T19:31:43.628Z,-1.28
2023-02-28T19:34:11.324Z,-1.28
2023-02-28T19:36:38.967Z,-1.31
2023-02-28T19:39:06.728Z,-1.36
2023-02-28T19:41:34.478Z,-1.38
2023-02-28T19:44:02.107Z,-1.41
2023-02-28T19:46:30.002Z,-1.44
2023-02-28T19:48:58.014Z,-1.45
2023-02-28T19:51:26.259Z,-1.46
2023-02-28T19:53:54.557Z,-1.45
2023-02-28T19:56:22.224Z,-1.45
2023-02-28T19:58:49.844Z,-1.47
2023-02-28T20:01:19.704Z,-1.49
2023-02-28T20:03:49.450Z,-1.49
2023-02-28T20:06:17.280Z,-1.53
2023-02-28T20:08:45.011Z,-1.55
2023-02-28T20:11:15.580Z,-1.56
2023-02-28T20:13:44.187Z,-1.58
2023-02-28T20:16:13.251Z,-1.60
2023-02-28T20:18:41.389Z,-1.60
2023-02-28T20:21:10.227Z,-1.60
2023-02-28T20:23:39.166Z,-1.61
2023-02-28T20:26:07.552Z,-1.61
2023-02-28T20:28:36.066Z,-1.61
2023-02-28T20:31:15.165Z,-1.63
2023-02-28T20:33:46.593Z,-1.67
2023-02-28T20:36:15.689Z,-1.70
2023-02-28T20:38:43.488Z,-1.73
2023-02-28T20:41:12.231Z,-1.76
2023-02-28T20:43:40.657Z,-1.80
2023-02-28T20:46:09.285Z,-1.82
2023-02-28T20:48:37.576Z,-1.86
2023-02-28T20:51:06.192Z,-1.87
2023-02-28T20:53:35.425Z,-1.89
2023-02-28T20:56:08.903Z,-1.93
2023-02-28T20:58:37.550Z,-1.97
2023-02-28T21:01:17.712Z,-2.01
2023-02-28T21:03:50.397Z,-2.05
2023-02-28T21:06:20.284Z,-2.08
2023-02-28T21:08:48.992Z,-2.12
2023-02-28T21:11:21.966Z,-2.15
2023-02-28T21:13:51.594Z,-2.17
2023-02-28T21:16:21.619Z,-2.17
2023-02-28T21:18:49.696Z,-2.18
2023-02-28T21:21:22.108Z,-2.22
2023-02-28T21:23:50.861Z,-2.24
2023-02-28T21:26:20.526Z,-2.27
2023-02-28T21:28:56.731Z,-2.29
2023-02-28T21:31:26.391Z,-2.30
2023-02-28T21:33:55.363Z,-2.32
2023-02-28T21:36:26.079Z,-2.33
2023-02-28T21:38:59.984Z,-2.35
2023-02-28T21:41:31.094Z,-2.37
2023-02-28T21:43:58.749Z,-2.36
2023-02-28T21:46:29.442Z,-2.34
2023-02-28T21:48:58.223Z,-2.33
2023-02-28T21:51:33.784Z,-2.32
2023-02-28T21:54:01.786Z,-2.31
2023-02-28T21:56:32.490Z,-2.30
2023-02-28T21:59:01.018Z,-2.30
2023-02-28T22:01:31.486Z,-2.31
2023-02-28T22:03:59.634Z,-2.34
2023-02-28T22:06:30.171Z,-2.36
2023-02-28T22:08:59.615Z,-2.39
2023-02-28T22:11:27.871Z,-2.41
2023-02-28T22:13:57.376Z,-2.42
2023-02-28T22:16:30.937Z,-2.44
2023-02-28T22:18:58.892Z,-2.46
2023-02-28T22:21:26.546Z,-2.50
2023-02-28T22:23:54.170Z,-2.52
2023-02-28T22:26:22.839Z,-2.53
2023-02-28T22:28:50.554Z,-2.54
2023-02-28T22:31:22.814Z,-2.56
2023-02-28T22:33:52.895Z,-2.58
2023-02-28T22:36:21.143Z,-2.60
2023-02-28T22:38:50.851Z,-2.64
2023-02-28T22:41:22.134Z,-2.66
2023-02-28T22:43:57.780Z,-2.68
2023-02-28T22:46:26.793Z,-2.70
2023-02-28T22:48:54.805Z,-2.71
2023-02-28T22:51:25.259Z,-2.73
2023-02-28T22:53:54.596Z,-2.76
2023-02-28T22:56:23.977Z,-2.77
2023-02-28T22:58:56.484Z,-2.77
2023-02-28T23:01:26.715Z,-2.75
2023-02-28T23:03:54.598Z,-2.74
2023-02-28T23:06:28.565Z,-2.72
2023-02-28T23:08:58.886Z,-2.72
2023-02-28T23:11:29.821Z,-2.73
2023-02-28T23:14:00.631Z,-2.76
2023-02-28T23:16:33.051Z,-2.79
2023-02-28T23:19:04.225Z,-2.80
2023-02-28T23:21:32.092Z,-2.82
2023-02-28T23:24:02.695Z,-2.83
2023-02-28T23:26:31.789Z,-2.83
2023-02-28T23:28:59.681Z,-2.83
2023-02-28T23:31:27.529Z,-2.85
2023-02-28T23:33:56.366Z,-2.87
2023-02-28T23:36:24.340Z,-2.89
2023-02-28T23:38:52.702Z,-2.88
2023-02-28T23:41:21.724Z,-2.87
2023-02-28T23:43:51.778Z,-2.89
2023-02-28T23:46:20.712Z,-2.90
2023-02-28T23:48:48.414Z,-2.92
2023-02-28T23:51:19.838Z,-2.95
2023-02-28T23:53:50.208Z,-2.96
2023-02-28T23:56:20.898Z,-2.98
2023-02-28T23:58:49.440Z,-3.00
